sensor_id;sensor_type;location;lat;lon;timestamp;P1;durP1;ratioP1;P2;durP2;ratioP2
14060;SDS011;7105;43.616;1.434;2023-06-14T00:01:35;4.23;;;3.83;;
14060;SDS011;7105;43.616;1.434;2023-06-14T00:04:03;5.00;;;4.00;;
14060;SDS011;7105;43.616;1.434;2023-06-14T00:06:30;5.05;;;4.10;;
14060;SDS011;7105;43.616;1.434;2023-06-14T00:08:58;5.27;;;4.30;;
14060;SDS011;7105;43.616;1.434;2023-06-14T00:11:24;4.88;;;4.00;;
14060;SDS011;7105;43.616;1.434;2023-06-14T00:13:51;4.93;;;4.33;;
14060;SDS011;7105;43.616;1.434;2023-06-14T00:16:17;4.70;;;4.20;;
14060;SDS011;7105;43.616;1.434;2023-06-14T00:18:44;4.60;;;3.93;;
14060;SDS011;7105;43.616;1.434;2023-06-14T00:21:11;4.30;;;3.88;;
14060;SDS011;7105;43.616;1.434;2023-06-14T00:23:37;4.65;;;4.20;;
14060;SDS011;7105;43.616;1.434;2023-06-14T00:26:03;9.23;;;3.93;;
14060;SDS011;7105;43.616;1.434;2023-06-14T00:28:28;4.33;;;3.97;;
14060;SDS011;7105;43.616;1.434;2023-06-14T00:30:54;4.47;;;3.80;;
14060;SDS011;7105;43.616;1.434;2023-06-14T00:33:20;4.20;;;3.80;;
14060;SDS011;7105;43.616;1.434;2023-06-14T00:35:46;4.40;;;3.80;;
14060;SDS011;7105;43.616;1.434;2023-06-14T00:38:12;5.00;;;4.05;;
14060;SDS011;7105;43.616;1.434;2023-06-14T00:40:38;5.07;;;4.40;;
14060;SDS011;7105;43.616;1.434;2023-06-14T00:43:03;6.27;;;4.00;;
14060;SDS011;7105;43.616;1.434;2023-06-14T00:45:29;4.83;;;3.80;;
14060;SDS011;7105;43.616;1.434;2023-06-14T00:47:56;4.10;;;3.70;;
14060;SDS011;7105;43.616;1.434;2023-06-14T00:50:22;4.50;;;4.10;;
14060;SDS011;7105;43.616;1.434;2023-06-14T00:52:49;4.50;;;4.10;;
14060;SDS011;7105;43.616;1.434;2023-06-14T00:55:15;5.50;;;4.10;;
14060;SDS011;7105;43.616;1.434;2023-06-14T00:57:41;5.30;;;4.80;;
14060;SDS011;7105;43.616;1.434;2023-06-14T01:00:07;5.28;;;4.53;;
14060;SDS011;7105;43.616;1.434;2023-06-14T01:02:34;5.47;;;4.40;;
14060;SDS011;7105;43.616;1.434;2023-06-14T01:05:02;5.50;;;4.95;;
14060;SDS011;7105;43.616;1.434;2023-06-14T01:13:06;5.68;;;5.03;;
14060;SDS011;7105;43.616;1.434;2023-06-14T01:15:38;5.30;;;4.80;;
14060;SDS011;7105;43.616;1.434;2023-06-14T01:18:05;6.87;;;6.17;;
14060;SDS011;7105;43.616;1.434;2023-06-14T01:20:34;7.87;;;5.87;;
14060;SDS011;7105;43.616;1.434;2023-06-14T01:23:02;7.60;;;6.77;;
14060;SDS011;7105;43.616;1.434;2023-06-14T01:25:28;8.60;;;6.73;;
14060;SDS011;7105;43.616;1.434;2023-06-14T01:28:00;7.67;;;6.97;;
14060;SDS011;7105;43.616;1.434;2023-06-14T01:30:29;7.97;;;7.22;;
14060;SDS011;7105;43.616;1.434;2023-06-14T01:32:55;8.43;;;7.10;;
14060;SDS011;7105;43.616;1.434;2023-06-14T01:35:23;8.53;;;7.57;;
14060;SDS011;7105;43.616;1.434;2023-06-14T01:37:48;8.20;;;7.40;;
14060;SDS011;7105;43.616;1.434;2023-06-14T01:40:17;7.83;;;7.03;;
14060;SDS011;7105;43.616;1.434;2023-06-14T01:42:44;7.73;;;6.93;;
14060;SDS011;7105;43.616;1.434;2023-06-14T01:45:12;8.10;;;7.30;;
14060;SDS011;7105;43.616;1.434;2023-06-14T01:47:40;9.33;;;7.83;;
14060;SDS011;7105;43.616;1.434;2023-06-14T01:50:06;8.00;;;7.15;;
14060;SDS011;7105;43.616;1.434;2023-06-14T01:52:32;9.93;;;7.75;;
14060;SDS011;7105;43.616;1.434;2023-06-14T01:54:57;8.30;;;7.07;;
14060;SDS011;7105;43.616;1.434;2023-06-14T01:57:23;9.83;;;7.37;;
14060;SDS011;7105;43.616;1.434;2023-06-14T01:59:51;12.03;;;7.60;;
14060;SDS011;7105;43.616;1.434;2023-06-14T02:02:17;10.13;;;6.90;;
14060;SDS011;7105;43.616;1.434;2023-06-14T02:04:43;9.20;;;6.97;;
14060;SDS011;7105;43.616;1.434;2023-06-14T02:07:11;7.83;;;7.03;;
14060;SDS011;7105;43.616;1.434;2023-06-14T02:09:37;9.00;;;7.03;;
14060;SDS011;7105;43.616;1.434;2023-06-14T02:12:02;8.30;;;7.23;;
14060;SDS011;7105;43.616;1.434;2023-06-14T02:14:28;9.03;;;6.80;;
14060;SDS011;7105;43.616;1.434;2023-06-14T02:16:54;8.00;;;7.17;;
14060;SDS011;7105;43.616;1.434;2023-06-14T02:19:19;8.27;;;6.95;;
14060;SDS011;7105;43.616;1.434;2023-06-14T02:21:46;8.10;;;7.30;;
14060;SDS011;7105;43.616;1.434;2023-06-14T02:24:13;9.45;;;7.00;;
14060;SDS011;7105;43.616;1.434;2023-06-14T02:26:38;10.43;;;7.28;;
14060;SDS011;7105;43.616;1.434;2023-06-14T02:29:06;8.30;;;7.50;;
14060;SDS011;7105;43.616;1.434;2023-06-14T02:31:35;8.23;;;7.47;;
14060;SDS011;7105;43.616;1.434;2023-06-14T02:34:00;11.30;;;7.38;;
14060;SDS011;7105;43.616;1.434;2023-06-14T02:36:26;8.57;;;7.00;;
14060;SDS011;7105;43.616;1.434;2023-06-14T02:38:52;9.30;;;7.10;;
14060;SDS011;7105;43.616;1.434;2023-06-14T02:41:19;8.85;;;7.47;;
14060;SDS011;7105;43.616;1.434;2023-06-14T02:43:45;8.25;;;7.32;;
14060;SDS011;7105;43.616;1.434;2023-06-14T02:46:10;7.43;;;6.43;;
14060;SDS011;7105;43.616;1.434;2023-06-14T02:48:36;7.70;;;6.60;;
14060;SDS011;7105;43.616;1.434;2023-06-14T02:51:02;10.17;;;7.60;;
14060;SDS011;7105;43.616;1.434;2023-06-14T02:53:27;9.40;;;6.50;;
14060;SDS011;7105;43.616;1.434;2023-06-14T02:55:53;7.87;;;6.80;;
14060;SDS011;7105;43.616;1.434;2023-06-14T02:58:20;8.73;;;6.40;;
14060;SDS011;7105;43.616;1.434;2023-06-14T03:00:46;7.77;;;6.70;;
14060;SDS011;7105;43.616;1.434;2023-06-14T03:03:12;10.57;;;6.67;;
14060;SDS011;7105;43.616;1.434;2023-06-14T03:05:43;7.13;;;6.33;;
14060;SDS011;7105;43.616;1.434;2023-06-14T03:08:14;7.53;;;5.80;;
14060;SDS011;7105;43.616;1.434;2023-06-14T03:10:42;8.63;;;6.30;;
14060;SDS011;7105;43.616;1.434;2023-06-14T03:13:08;6.83;;;6.13;;
14060;SDS011;7105;43.616;1.434;2023-06-14T03:15:36;7.17;;;6.47;;
14060;SDS011;7105;43.616;1.434;2023-06-14T03:18:02;7.30;;;5.90;;
14060;SDS011;7105;43.616;1.434;2023-06-14T03:20:28;10.20;;;6.07;;
14060;SDS011;7105;43.616;1.434;2023-06-14T03:22:55;6.20;;;5.50;;
14060;SDS011;7105;43.616;1.434;2023-06-14T03:25:20;6.43;;;4.97;;
14060;SDS011;7105;43.616;1.434;2023-06-14T03:27:47;8.30;;;5.60;;
14060;SDS011;7105;43.616;1.434;2023-06-14T03:30:13;8.43;;;5.57;;
14060;SDS011;7105;43.616;1.434;2023-06-14T03:32:38;7.27;;;5.80;;
14060;SDS011;7105;43.616;1.434;2023-06-14T03:35:04;8.17;;;5.93;;
14060;SDS011;7105;43.616;1.434;2023-06-14T03:37:31;7.60;;;5.93;;
14060;SDS011;7105;43.616;1.434;2023-06-14T03:39:56;7.03;;;5.77;;
14060;SDS011;7105;43.616;1.434;2023-06-14T03:42:22;7.90;;;5.97;;
14060;SDS011;7105;43.616;1.434;2023-06-14T03:44:48;9.10;;;6.53;;
14060;SDS011;7105;43.616;1.434;2023-06-14T03:47:13;7.13;;;6.03;;
14060;SDS011;7105;43.616;1.434;2023-06-14T03:49:40;8.47;;;6.30;;
14060;SDS011;7105;43.616;1.434;2023-06-14T03:52:05;7.43;;;6.13;;
14060;SDS011;7105;43.616;1.434;2023-06-14T03:54:31;9.63;;;6.37;;
14060;SDS011;7105;43.616;1.434;2023-06-14T03:56:58;7.47;;;6.77;;
14060;SDS011;7105;43.616;1.434;2023-06-14T03:59:23;7.77;;;7.00;;
14060;SDS011;7105;43.616;1.434;2023-06-14T04:01:50;8.30;;;7.00;;
14060;SDS011;7105;43.616;1.434;2023-06-14T04:04:16;11.07;;;8.73;;
14060;SDS011;7105;43.616;1.434;2023-06-14T04:06:43;10.13;;;7.33;;
14060;SDS011;7105;43.616;1.434;2023-06-14T04:09:09;11.23;;;7.33;;
14060;SDS011;7105;43.616;1.434;2023-06-14T04:11:34;9.47;;;7.50;;
14060;SDS011;7105;43.616;1.434;2023-06-14T04:14:01;9.30;;;7.97;;
14060;SDS011;7105;43.616;1.434;2023-06-14T04:16:27;9.70;;;8.00;;
14060;SDS011;7105;43.616;1.434;2023-06-14T04:18:54;12.30;;;8.73;;
14060;SDS011;7105;43.616;1.434;2023-06-14T04:21:22;10.67;;;8.23;;
14060;SDS011;7105;43.616;1.434;2023-06-14T04:23:48;10.53;;;8.20;;
14060;SDS011;7105;43.616;1.434;2023-06-14T04:26:17;10.73;;;9.40;;
14060;SDS011;7105;43.616;1.434;2023-06-14T04:28:44;12.00;;;9.60;;
14060;SDS011;7105;43.616;1.434;2023-06-14T04:31:11;10.90;;;9.87;;
14060;SDS011;7105;43.616;1.434;2023-06-14T04:33:37;12.53;;;10.37;;
14060;SDS011;7105;43.616;1.434;2023-06-14T04:36:11;13.90;;;10.70;;
14060;SDS011;7105;43.616;1.434;2023-06-14T04:38:38;14.15;;;10.55;;
14060;SDS011;7105;43.616;1.434;2023-06-14T04:41:04;12.13;;;10.90;;
14060;SDS011;7105;43.616;1.434;2023-06-14T04:43:31;15.53;;;10.93;;
14060;SDS011;7105;43.616;1.434;2023-06-14T04:46:03;14.93;;;11.60;;
14060;SDS011;7105;43.616;1.434;2023-06-14T04:48:30;17.40;;;11.73;;
14060;SDS011;7105;43.616;1.434;2023-06-14T04:50:57;14.23;;;11.47;;
14060;SDS011;7105;43.616;1.434;2023-06-14T04:53:23;14.17;;;11.33;;
14060;SDS011;7105;43.616;1.434;2023-06-14T04:55:48;15.77;;;12.07;;
14060;SDS011;7105;43.616;1.434;2023-06-14T04:58:15;17.50;;;12.20;;
14060;SDS011;7105;43.616;1.434;2023-06-14T05:00:41;17.80;;;12.47;;
14060;SDS011;7105;43.616;1.434;2023-06-14T05:03:08;16.17;;;12.63;;
14060;SDS011;7105;43.616;1.434;2023-06-14T05:05:34;16.43;;;12.77;;
14060;SDS011;7105;43.616;1.434;2023-06-14T05:08:00;13.83;;;12.20;;
14060;SDS011;7105;43.616;1.434;2023-06-14T05:10:25;16.97;;;13.50;;
14060;SDS011;7105;43.616;1.434;2023-06-14T05:12:54;14.93;;;12.83;;
14060;SDS011;7105;43.616;1.434;2023-06-14T05:15:19;19.20;;;13.33;;
14060;SDS011;7105;43.616;1.434;2023-06-14T05:17:50;19.03;;;13.33;;
14060;SDS011;7105;43.616;1.434;2023-06-14T05:20:20;18.40;;;12.77;;
14060;SDS011;7105;43.616;1.434;2023-06-14T05:22:50;18.70;;;13.10;;
14060;SDS011;7105;43.616;1.434;2023-06-14T05:25:17;19.17;;;14.63;;
14060;SDS011;7105;43.616;1.434;2023-06-14T05:27:43;15.37;;;13.77;;
14060;SDS011;7105;43.616;1.434;2023-06-14T05:30:09;18.27;;;13.93;;
14060;SDS011;7105;43.616;1.434;2023-06-14T05:32:35;18.33;;;14.07;;
14060;SDS011;7105;43.616;1.434;2023-06-14T05:35:01;18.63;;;14.80;;
14060;SDS011;7105;43.616;1.434;2023-06-14T05:37:27;21.87;;;15.27;;
14060;SDS011;7105;43.616;1.434;2023-06-14T05:39:52;21.60;;;14.27;;
14060;SDS011;7105;43.616;1.434;2023-06-14T05:42:18;17.60;;;14.10;;
14060;SDS011;7105;43.616;1.434;2023-06-14T05:44:44;17.07;;;14.53;;
14060;SDS011;7105;43.616;1.434;2023-06-14T05:47:09;22.53;;;15.67;;
14060;SDS011;7105;43.616;1.434;2023-06-14T05:49:35;19.40;;;14.90;;
14060;SDS011;7105;43.616;1.434;2023-06-14T05:52:00;18.67;;;14.43;;
14060;SDS011;7105;43.616;1.434;2023-06-14T05:54:26;17.53;;;15.60;;
14060;SDS011;7105;43.616;1.434;2023-06-14T05:56:52;17.63;;;14.00;;
14060;SDS011;7105;43.616;1.434;2023-06-14T05:59:19;19.43;;;14.17;;
14060;SDS011;7105;43.616;1.434;2023-06-14T06:01:45;20.00;;;15.53;;
14060;SDS011;7105;43.616;1.434;2023-06-14T06:04:11;19.67;;;15.25;;
14060;SDS011;7105;43.616;1.434;2023-06-14T06:06:37;18.97;;;14.97;;
14060;SDS011;7105;43.616;1.434;2023-06-14T06:09:02;20.58;;;15.23;;
14060;SDS011;7105;43.616;1.434;2023-06-14T06:11:28;17.02;;;14.60;;
14060;SDS011;7105;43.616;1.434;2023-06-14T06:13:54;17.92;;;15.18;;
14060;SDS011;7105;43.616;1.434;2023-06-14T06:16:20;17.88;;;14.23;;
14060;SDS011;7105;43.616;1.434;2023-06-14T06:18:45;18.30;;;14.35;;
14060;SDS011;7105;43.616;1.434;2023-06-14T06:21:11;18.98;;;13.35;;
14060;SDS011;7105;43.616;1.434;2023-06-14T06:23:37;18.67;;;14.63;;
14060;SDS011;7105;43.616;1.434;2023-06-14T06:26:02;17.03;;;14.03;;
14060;SDS011;7105;43.616;1.434;2023-06-14T06:28:28;18.75;;;14.30;;
14060;SDS011;7105;43.616;1.434;2023-06-14T06:30:54;18.85;;;14.57;;
14060;SDS011;7105;43.616;1.434;2023-06-14T06:33:20;17.33;;;13.80;;
14060;SDS011;7105;43.616;1.434;2023-06-14T06:35:46;16.38;;;13.82;;
14060;SDS011;7105;43.616;1.434;2023-06-14T06:38:12;17.02;;;13.95;;
14060;SDS011;7105;43.616;1.434;2023-06-14T06:40:37;16.33;;;14.60;;
14060;SDS011;7105;43.616;1.434;2023-06-14T06:43:03;19.73;;;14.55;;
14060;SDS011;7105;43.616;1.434;2023-06-14T06:45:29;17.95;;;15.07;;
14060;SDS011;7105;43.616;1.434;2023-06-14T06:47:55;15.98;;;13.68;;
14060;SDS011;7105;43.616;1.434;2023-06-14T06:50:21;18.80;;;14.77;;
14060;SDS011;7105;43.616;1.434;2023-06-14T06:52:50;19.33;;;14.63;;
14060;SDS011;7105;43.616;1.434;2023-06-14T06:55:16;17.35;;;13.88;;
14060;SDS011;7105;43.616;1.434;2023-06-14T06:57:43;18.55;;;13.98;;
14060;SDS011;7105;43.616;1.434;2023-06-14T07:00:09;19.83;;;14.57;;
14060;SDS011;7105;43.616;1.434;2023-06-14T07:02:35;17.25;;;13.88;;
14060;SDS011;7105;43.616;1.434;2023-06-14T07:05:01;18.20;;;14.38;;
14060;SDS011;7105;43.616;1.434;2023-06-14T07:07:27;19.55;;;14.90;;
14060;SDS011;7105;43.616;1.434;2023-06-14T07:09:53;18.38;;;14.25;;
14060;SDS011;7105;43.616;1.434;2023-06-14T07:12:19;20.92;;;14.52;;
14060;SDS011;7105;43.616;1.434;2023-06-14T07:14:44;21.02;;;15.25;;
14060;SDS011;7105;43.616;1.434;2023-06-14T07:17:10;20.23;;;15.65;;
14060;SDS011;7105;43.616;1.434;2023-06-14T07:19:36;18.33;;;14.40;;
14060;SDS011;7105;43.616;1.434;2023-06-14T07:22:01;18.38;;;13.77;;
14060;SDS011;7105;43.616;1.434;2023-06-14T07:24:27;19.23;;;15.02;;
14060;SDS011;7105;43.616;1.434;2023-06-14T07:26:53;20.67;;;14.82;;
14060;SDS011;7105;43.616;1.434;2023-06-14T07:29:19;18.50;;;14.38;;
14060;SDS011;7105;43.616;1.434;2023-06-14T07:31:46;21.42;;;13.57;;
14060;SDS011;7105;43.616;1.434;2023-06-14T07:34:12;18.25;;;13.77;;
14060;SDS011;7105;43.616;1.434;2023-06-14T07:36:37;18.02;;;13.57;;
14060;SDS011;7105;43.616;1.434;2023-06-14T07:39:03;18.35;;;13.02;;
14060;SDS011;7105;43.616;1.434;2023-06-14T07:41:31;15.40;;;12.95;;
14060;SDS011;7105;43.616;1.434;2023-06-14T07:43:57;24.27;;;14.32;;
14060;SDS011;7105;43.616;1.434;2023-06-14T07:46:24;19.65;;;13.27;;
14060;SDS011;7105;43.616;1.434;2023-06-14T07:48:50;16.25;;;12.15;;
14060;SDS011;7105;43.616;1.434;2023-06-14T07:51:16;17.77;;;12.15;;
14060;SDS011;7105;43.616;1.434;2023-06-14T07:53:42;16.95;;;13.38;;
14060;SDS011;7105;43.616;1.434;2023-06-14T07:56:07;17.20;;;13.85;;
14060;SDS011;7105;43.616;1.434;2023-06-14T07:58:33;17.92;;;14.93;;
14060;SDS011;7105;43.616;1.434;2023-06-14T08:00:59;20.73;;;13.20;;
14060;SDS011;7105;43.616;1.434;2023-06-14T08:03:26;17.92;;;12.80;;
14060;SDS011;7105;43.616;1.434;2023-06-14T08:05:53;16.38;;;12.75;;
14060;SDS011;7105;43.616;1.434;2023-06-14T08:08:19;16.83;;;12.32;;
14060;SDS011;7105;43.616;1.434;2023-06-14T08:10:44;20.45;;;12.80;;
14060;SDS011;7105;43.616;1.434;2023-06-14T08:13:11;23.98;;;15.68;;
14060;SDS011;7105;43.616;1.434;2023-06-14T08:15:37;17.40;;;13.02;;
14060;SDS011;7105;43.616;1.434;2023-06-14T08:18:03;19.75;;;13.75;;
14060;SDS011;7105;43.616;1.434;2023-06-14T08:20:29;16.30;;;13.00;;
14060;SDS011;7105;43.616;1.434;2023-06-14T08:22:56;18.75;;;13.30;;
14060;SDS011;7105;43.616;1.434;2023-06-14T08:25:23;15.13;;;12.43;;
14060;SDS011;7105;43.616;1.434;2023-06-14T08:27:48;17.30;;;13.15;;
14060;SDS011;7105;43.616;1.434;2023-06-14T08:30:15;14.80;;;12.20;;
14060;SDS011;7105;43.616;1.434;2023-06-14T08:32:42;18.48;;;12.23;;
14060;SDS011;7105;43.616;1.434;2023-06-14T08:35:08;18.40;;;12.27;;
14060;SDS011;7105;43.616;1.434;2023-06-14T08:37:37;17.67;;;11.15;;
14060;SDS011;7105;43.616;1.434;2023-06-14T08:40:06;18.92;;;12.15;;
14060;SDS011;7105;43.616;1.434;2023-06-14T08:42:48;16.45;;;11.40;;
14060;SDS011;7105;43.616;1.434;2023-06-14T08:45:17;14.68;;;10.93;;
14060;SDS011;7105;43.616;1.434;2023-06-14T08:47:45;19.23;;;13.65;;
14060;SDS011;7105;43.616;1.434;2023-06-14T08:50:17;15.45;;;11.30;;
14060;SDS011;7105;43.616;1.434;2023-06-14T08:52:45;16.38;;;11.55;;
14060;SDS011;7105;43.616;1.434;2023-06-14T08:55:14;15.18;;;11.20;;
14060;SDS011;7105;43.616;1.434;2023-06-14T08:57:43;16.17;;;11.27;;
14060;SDS011;7105;43.616;1.434;2023-06-14T09:00:11;13.65;;;11.43;;
14060;SDS011;7105;43.616;1.434;2023-06-14T09:02:38;15.10;;;10.98;;
14060;SDS011;7105;43.616;1.434;2023-06-14T09:05:11;16.92;;;11.88;;
14060;SDS011;7105;43.616;1.434;2023-06-14T09:07:38;16.52;;;12.13;;
14060;SDS011;7105;43.616;1.434;2023-06-14T09:10:12;17.05;;;12.95;;
14060;SDS011;7105;43.616;1.434;2023-06-14T09:12:38;15.48;;;11.75;;
14060;SDS011;7105;43.616;1.434;2023-06-14T09:15:05;16.73;;;10.65;;
14060;SDS011;7105;43.616;1.434;2023-06-14T09:17:33;16.42;;;11.82;;
14060;SDS011;7105;43.616;1.434;2023-06-14T09:20:02;20.65;;;11.45;;
14060;SDS011;7105;43.616;1.434;2023-06-14T09:22:34;13.20;;;10.80;;
14060;SDS011;7105;43.616;1.434;2023-06-14T09:25:00;13.18;;;11.07;;
14060;SDS011;7105;43.616;1.434;2023-06-14T09:27:27;15.68;;;10.98;;
14060;SDS011;7105;43.616;1.434;2023-06-14T09:29:55;14.23;;;10.98;;
14060;SDS011;7105;43.616;1.434;2023-06-14T09:32:25;13.88;;;9.88;;
14060;SDS011;7105;43.616;1.434;2023-06-14T09:34:53;16.92;;;10.75;;
14060;SDS011;7105;43.616;1.434;2023-06-14T09:37:28;13.88;;;10.40;;
14060;SDS011;7105;43.616;1.434;2023-06-14T09:39:54;13.35;;;10.75;;
14060;SDS011;7105;43.616;1.434;2023-06-14T09:42:20;17.50;;;11.40;;
14060;SDS011;7105;43.616;1.434;2023-06-14T09:44:48;14.30;;;11.45;;
14060;SDS011;7105;43.616;1.434;2023-06-14T09:47:15;14.98;;;10.30;;
14060;SDS011;7105;43.616;1.434;2023-06-14T09:49:41;17.98;;;10.90;;
14060;SDS011;7105;43.616;1.434;2023-06-14T09:52:10;14.55;;;10.60;;
14060;SDS011;7105;43.616;1.434;2023-06-14T09:54:40;13.10;;;10.23;;
14060;SDS011;7105;43.616;1.434;2023-06-14T09:57:20;14.45;;;10.25;;
14060;SDS011;7105;43.616;1.434;2023-06-14T09:59:47;13.05;;;10.63;;
14060;SDS011;7105;43.616;1.434;2023-06-14T10:04:49;15.00;;;10.48;;
14060;SDS011;7105;43.616;1.434;2023-06-14T10:07:19;13.55;;;10.65;;
14060;SDS011;7105;43.616;1.434;2023-06-14T10:09:45;14.50;;;10.50;;
14060;SDS011;7105;43.616;1.434;2023-06-14T10:12:16;15.57;;;10.25;;
14060;SDS011;7105;43.616;1.434;2023-06-14T10:14:47;11.68;;;9.90;;
14060;SDS011;7105;43.616;1.434;2023-06-14T10:17:20;17.92;;;10.63;;
14060;SDS011;7105;43.616;1.434;2023-06-14T10:22:56;12.23;;;10.32;;
14060;SDS011;7105;43.616;1.434;2023-06-14T10:25:30;14.25;;;10.43;;
14060;SDS011;7105;43.616;1.434;2023-06-14T10:33:49;16.15;;;10.63;;
14060;SDS011;7105;43.616;1.434;2023-06-14T10:38:59;13.23;;;10.23;;
14060;SDS011;7105;43.616;1.434;2023-06-14T10:41:26;12.25;;;9.13;;
14060;SDS011;7105;43.616;1.434;2023-06-14T10:44:06;11.80;;;10.55;;
14060;SDS011;7105;43.616;1.434;2023-06-14T10:46:47;12.90;;;9.38;;
14060;SDS011;7105;43.616;1.434;2023-06-14T10:49:19;12.55;;;9.43;;
14060;SDS011;7105;43.616;1.434;2023-06-14T10:52:02;14.38;;;9.90;;
14060;SDS011;7105;43.616;1.434;2023-06-14T10:54:28;12.73;;;9.85;;
14060;SDS011;7105;43.616;1.434;2023-06-14T10:56:54;12.82;;;10.05;;
14060;SDS011;7105;43.616;1.434;2023-06-14T10:59:20;13.60;;;9.90;;
14060;SDS011;7105;43.616;1.434;2023-06-14T11:04:51;11.45;;;9.35;;
14060;SDS011;7105;43.616;1.434;2023-06-14T11:10:58;11.05;;;9.95;;
14060;SDS011;7105;43.616;1.434;2023-06-14T11:13:03;12.15;;;10.18;;
14060;SDS011;7105;43.616;1.434;2023-06-14T11:15:29;12.82;;;9.90;;
14060;SDS011;7105;43.616;1.434;2023-06-14T11:17:56;10.85;;;9.70;;
14060;SDS011;7105;43.616;1.434;2023-06-14T11:20:32;11.45;;;9.23;;
14060;SDS011;7105;43.616;1.434;2023-06-14T11:23:00;14.95;;;9.80;;
14060;SDS011;7105;43.616;1.434;2023-06-14T11:25:28;13.18;;;10.00;;
14060;SDS011;7105;43.616;1.434;2023-06-14T11:27:54;11.40;;;9.27;;
14060;SDS011;7105;43.616;1.434;2023-06-14T11:30:24;12.23;;;9.63;;
14060;SDS011;7105;43.616;1.434;2023-06-14T11:32:53;12.00;;;9.30;;
14060;SDS011;7105;43.616;1.434;2023-06-14T11:35:24;11.25;;;9.52;;
14060;SDS011;7105;43.616;1.434;2023-06-14T11:37:54;10.68;;;9.45;;
14060;SDS011;7105;43.616;1.434;2023-06-14T11:40:26;12.18;;;10.13;;
14060;SDS011;7105;43.616;1.434;2023-06-14T11:42:59;13.50;;;9.38;;
14060;SDS011;7105;43.616;1.434;2023-06-14T11:45:28;10.18;;;9.10;;
14060;SDS011;7105;43.616;1.434;2023-06-14T11:47:55;11.20;;;9.73;;
14060;SDS011;7105;43.616;1.434;2023-06-14T11:50:22;12.77;;;9.80;;
14060;SDS011;7105;43.616;1.434;2023-06-14T11:52:57;14.30;;;9.60;;
14060;SDS011;7105;43.616;1.434;2023-06-14T11:55:35;9.90;;;8.88;;
14060;SDS011;7105;43.616;1.434;2023-06-14T11:58:02;11.05;;;9.80;;
14060;SDS011;7105;43.616;1.434;2023-06-14T12:00:28;13.23;;;9.75;;
14060;SDS011;7105;43.616;1.434;2023-06-14T12:02:55;10.90;;;8.95;;
14060;SDS011;7105;43.616;1.434;2023-06-14T12:05:24;11.57;;;10.05;;
14060;SDS011;7105;43.616;1.434;2023-06-14T12:07:57;10.82;;;9.48;;
14060;SDS011;7105;43.616;1.434;2023-06-14T12:10:25;9.95;;;8.80;;
14060;SDS011;7105;43.616;1.434;2023-06-14T12:12:57;11.40;;;9.38;;
14060;SDS011;7105;43.616;1.434;2023-06-14T12:15:24;12.88;;;9.88;;
14060;SDS011;7105;43.616;1.434;2023-06-14T12:17:50;11.80;;;9.50;;
14060;SDS011;7105;43.616;1.434;2023-06-14T12:20:15;12.55;;;8.55;;
14060;SDS011;7105;43.616;1.434;2023-06-14T12:22:54;13.60;;;9.30;;
14060;SDS011;7105;43.616;1.434;2023-06-14T12:27:58;11.25;;;9.23;;
14060;SDS011;7105;43.616;1.434;2023-06-14T12:30:24;11.30;;;9.10;;
14060;SDS011;7105;43.616;1.434;2023-06-14T12:32:50;14.60;;;9.98;;
14060;SDS011;7105;43.616;1.434;2023-06-14T12:35:16;12.68;;;8.95;;
14060;SDS011;7105;43.616;1.434;2023-06-14T12:37:43;10.45;;;9.43;;
14060;SDS011;7105;43.616;1.434;2023-06-14T12:40:10;13.88;;;8.93;;
14060;SDS011;7105;43.616;1.434;2023-06-14T12:42:37;10.75;;;8.85;;
14060;SDS011;7105;43.616;1.434;2023-06-14T12:45:02;10.48;;;9.43;;
14060;SDS011;7105;43.616;1.434;2023-06-14T12:47:28;11.98;;;9.10;;
14060;SDS011;7105;43.616;1.434;2023-06-14T12:49:54;10.35;;;8.20;;
14060;SDS011;7105;43.616;1.434;2023-06-14T12:52:20;13.18;;;9.30;;
14060;SDS011;7105;43.616;1.434;2023-06-14T12:54:46;12.05;;;8.55;;
14060;SDS011;7105;43.616;1.434;2023-06-14T12:57:11;11.73;;;8.48;;
14060;SDS011;7105;43.616;1.434;2023-06-14T12:59:37;10.90;;;9.02;;
14060;SDS011;7105;43.616;1.434;2023-06-14T13:02:15;10.32;;;8.50;;
14060;SDS011;7105;43.616;1.434;2023-06-14T13:04:42;13.20;;;8.93;;
14060;SDS011;7105;43.616;1.434;2023-06-14T13:07:08;9.45;;;8.45;;
14060;SDS011;7105;43.616;1.434;2023-06-14T13:09:35;12.88;;;9.10;;
14060;SDS011;7105;43.616;1.434;2023-06-14T13:12:01;10.75;;;9.75;;
14060;SDS011;7105;43.616;1.434;2023-06-14T13:14:27;10.45;;;9.38;;
14060;SDS011;7105;43.616;1.434;2023-06-14T13:16:53;12.30;;;8.93;;
14060;SDS011;7105;43.616;1.434;2023-06-14T13:19:20;9.88;;;8.88;;
14060;SDS011;7105;43.616;1.434;2023-06-14T13:21:46;11.45;;;9.35;;
14060;SDS011;7105;43.616;1.434;2023-06-14T13:24:13;11.93;;;8.50;;
14060;SDS011;7105;43.616;1.434;2023-06-14T13:26:38;9.70;;;8.70;;
14060;SDS011;7105;43.616;1.434;2023-06-14T13:29:04;11.05;;;8.70;;
14060;SDS011;7105;43.616;1.434;2023-06-14T13:31:30;10.93;;;9.10;;
14060;SDS011;7105;43.616;1.434;2023-06-14T13:33:56;10.30;;;9.20;;
14060;SDS011;7105;43.616;1.434;2023-06-14T13:36:22;11.73;;;9.30;;
14060;SDS011;7105;43.616;1.434;2023-06-14T13:38:47;10.45;;;8.98;;
14060;SDS011;7105;43.616;1.434;2023-06-14T13:41:13;9.80;;;8.57;;
14060;SDS011;7105;43.616;1.434;2023-06-14T13:43:38;10.90;;;9.23;;
14060;SDS011;7105;43.616;1.434;2023-06-14T13:46:05;10.10;;;9.07;;
14060;SDS011;7105;43.616;1.434;2023-06-14T13:48:31;13.13;;;9.05;;
14060;SDS011;7105;43.616;1.434;2023-06-14T13:50:59;9.35;;;8.45;;
14060;SDS011;7105;43.616;1.434;2023-06-14T13:53:25;10.20;;;9.02;;
14060;SDS011;7105;43.616;1.434;2023-06-14T13:55:53;9.73;;;8.40;;
14060;SDS011;7105;43.616;1.434;2023-06-14T13:58:19;10.85;;;8.77;;
14060;SDS011;7105;43.616;1.434;2023-06-14T14:00:45;10.32;;;8.63;;
14060;SDS011;7105;43.616;1.434;2023-06-14T14:03:10;10.23;;;9.10;;
14060;SDS011;7105;43.616;1.434;2023-06-14T14:05:36;13.32;;;9.20;;
14060;SDS011;7105;43.616;1.434;2023-06-14T14:08:02;11.10;;;8.95;;
14060;SDS011;7105;43.616;1.434;2023-06-14T14:10:28;9.60;;;8.30;;
14060;SDS011;7105;43.616;1.434;2023-06-14T14:12:54;10.43;;;8.45;;
14060;SDS011;7105;43.616;1.434;2023-06-14T14:15:20;11.50;;;8.65;;
14060;SDS011;7105;43.616;1.434;2023-06-14T14:17:46;10.65;;;8.70;;
14060;SDS011;7105;43.616;1.434;2023-06-14T14:20:12;13.07;;;9.00;;
14060;SDS011;7105;43.616;1.434;2023-06-14T14:22:40;9.95;;;8.93;;
14060;SDS011;7105;43.616;1.434;2023-06-14T14:25:07;10.93;;;8.63;;
14060;SDS011;7105;43.616;1.434;2023-06-14T14:27:33;10.55;;;8.82;;
14060;SDS011;7105;43.616;1.434;2023-06-14T14:29:59;13.65;;;9.57;;
14060;SDS011;7105;43.616;1.434;2023-06-14T14:32:24;12.77;;;9.30;;
14060;SDS011;7105;43.616;1.434;2023-06-14T14:34:50;11.38;;;9.77;;
14060;SDS011;7105;43.616;1.434;2023-06-14T14:37:16;14.18;;;9.20;;
14060;SDS011;7105;43.616;1.434;2023-06-14T14:39:43;9.85;;;8.80;;
14060;SDS011;7105;43.616;1.434;2023-06-14T14:42:10;12.25;;;9.20;;
14060;SDS011;7105;43.616;1.434;2023-06-14T14:44:37;13.90;;;9.80;;
14060;SDS011;7105;43.616;1.434;2023-06-14T14:47:03;13.05;;;9.68;;
14060;SDS011;7105;43.616;1.434;2023-06-14T14:49:30;11.75;;;9.43;;
14060;SDS011;7105;43.616;1.434;2023-06-14T14:51:56;12.48;;;9.57;;
14060;SDS011;7105;43.616;1.434;2023-06-14T14:54:22;11.48;;;9.07;;
14060;SDS011;7105;43.616;1.434;2023-06-14T14:56:48;14.55;;;9.55;;
14060;SDS011;7105;43.616;1.434;2023-06-14T14:59:14;10.98;;;9.07;;
14060;SDS011;7105;43.616;1.434;2023-06-14T15:01:40;10.98;;;9.15;;
14060;SDS011;7105;43.616;1.434;2023-06-14T15:04:06;11.73;;;8.95;;
14060;SDS011;7105;43.616;1.434;2023-06-14T15:06:31;15.68;;;9.30;;
14060;SDS011;7105;43.616;1.434;2023-06-14T15:09:00;11.10;;;8.35;;
14060;SDS011;7105;43.616;1.434;2023-06-14T15:11:26;11.32;;;8.95;;
14060;SDS011;7105;43.616;1.434;2023-06-14T15:13:52;14.55;;;9.05;;